createdAt,value
2022-10-29T00:02:51.709Z,90.32
2022-10-29T00:11:18.494Z,90.41
2022-10-29T00:19:41.256Z,91.70
2022-10-29T00:28:04.057Z,90.99
2022-10-29T00:36:29.159Z,91.41
2022-10-29T00:44:51.955Z,91.26
2022-10-29T00:53:19.416Z,90.86
2022-10-29T01:01:44.190Z,91.08
2022-10-29T01:10:07.793Z,90.83
2022-10-29T01:18:41.670Z,90.37
2022-10-29T01:27:15.720Z,90.43
2022-10-29T01:36:03.795Z,90.12
2022-10-29T01:44:33.841Z,90.30
2022-10-29T01:52:57.821Z,90.40
2022-10-29T02:01:47.798Z,89.70
2022-10-29T02:10:24.030Z,89.86
2022-10-29T02:18:49.210Z,90.26
2022-10-29T02:27:12.181Z,90.07
2022-10-29T02:35:34.975Z,89.97
2022-10-29T02:43:59.386Z,90.01
2022-10-29T02:52:22.340Z,89.77
2022-10-29T03:00:45.108Z,90.10
2022-10-29T03:09:07.882Z,90.68
2022-10-29T03:17:30.680Z,90.27
2022-10-29T03:25:56.044Z,90.59
2022-10-29T03:34:19.135Z,91.69
2022-10-29T03:42:41.851Z,91.86
2022-10-29T03:51:06.764Z,91.46
2022-10-29T03:59:29.565Z,91.63
2022-10-29T04:07:52.275Z,92.00
2022-10-29T04:16:15.046Z,91.96
2022-10-29T04:33:21.195Z,91.94
2022-10-29T04:41:43.977Z,92.23
2022-10-29T04:50:07.071Z,91.86
2022-10-29T04:58:29.847Z,91.67
2022-10-29T05:06:52.641Z,91.04
2022-10-29T05:15:15.426Z,90.52
2022-10-29T05:23:38.144Z,90.22
2022-10-29T05:32:01.142Z,90.69
2022-10-29T05:40:24.481Z,90.91
2022-10-29T05:48:47.255Z,90.71
2022-10-29T05:57:10.113Z,90.22
2022-10-29T06:05:33.413Z,90.04
2022-10-29T06:13:56.576Z,89.96
2022-10-29T06:22:19.468Z,89.64
2022-10-29T06:30:48.258Z,89.16
2022-10-29T06:39:11.090Z,89.01
2022-10-29T06:47:43.955Z,88.71
2022-10-29T06:56:07.014Z,88.59
2022-10-29T07:04:29.861Z,88.40
2022-10-29T07:12:52.808Z,87.45
2022-10-29T07:21:15.575Z,86.90
2022-10-29T07:29:40.241Z,86.54
2022-10-29T07:38:07.122Z,85.82
2022-10-29T07:46:33.199Z,84.66
2022-10-29T07:54:56.125Z,82.42
2022-10-29T08:03:19.075Z,81.43
2022-10-29T08:11:42.285Z,80.36
2022-10-29T08:20:05.603Z,79.82
2022-10-29T08:28:29.384Z,78.63
2022-10-29T08:36:54.580Z,76.99
2022-10-29T08:45:45.356Z,75.70
2022-10-29T08:54:30.165Z,74.52
2022-10-29T09:02:58.199Z,73.74
2022-10-29T09:11:27.038Z,72.46
2022-10-29T09:20:18.195Z,72.54
2022-10-29T09:28:53.304Z,72.17
2022-10-29T09:37:17.416Z,70.68
2022-10-29T09:46:07.644Z,69.86
2022-10-29T09:54:31.866Z,69.79
2022-10-29T10:03:03.424Z,69.54
2022-10-29T10:11:32.607Z,69.87
2022-10-29T10:19:55.484Z,69.07
2022-10-29T10:28:20.001Z,68.42
2022-10-29T10:36:47.683Z,67.78
2022-10-29T10:45:24.351Z,66.92
2022-10-29T10:53:47.457Z,66.57
2022-10-29T11:02:30.885Z,66.61
2022-10-29T11:10:59.200Z,57.27
2022-10-29T11:19:38.761Z,46.64
2022-10-29T11:28:16.154Z,43.27
2022-10-29T11:36:51.293Z,52.57
2022-10-29T11:45:38.322Z,61.10
2022-10-29T11:54:22.973Z,63.55
2022-10-29T12:03:07.967Z,66.62
2022-10-29T12:11:44.577Z,67.50
2022-10-29T12:20:38.590Z,65.35
2022-10-29T12:29:27.583Z,66.14
2022-10-29T12:38:12.753Z,67.04
2022-10-29T12:46:43.980Z,69.62
2022-10-29T12:55:10.628Z,72.47
2022-10-29T13:03:56.463Z,72.59
2022-10-29T13:13:00.611Z,70.80
2022-10-29T13:21:57.816Z,68.97
2022-10-29T13:30:27.251Z,68.99
2022-10-29T13:39:04.485Z,69.54
2022-10-29T13:47:30.326Z,68.72
2022-10-29T13:55:53.513Z,68.69
2022-10-29T14:04:31.273Z,69.34
2022-10-29T14:13:00.373Z,71.30
2022-10-29T14:21:36.922Z,71.94
2022-10-29T14:30:14.381Z,72.56
2022-10-29T14:39:00.100Z,73.07
2022-10-29T14:47:28.963Z,74.28
2022-10-29T14:55:55.478Z,76.15
2022-10-29T15:04:29.390Z,76.90
2022-10-29T15:12:52.759Z,77.57
2022-10-29T15:21:31.867Z,78.79
2022-10-29T15:29:55.431Z,79.09
2022-10-29T15:38:30.653Z,79.91
2022-10-29T15:46:59.074Z,80.63
2022-10-29T15:55:27.106Z,80.58
2022-10-29T16:03:50.190Z,81.58
2022-10-29T16:12:13.201Z,82.36
2022-10-29T16:20:36.781Z,82.39
2022-10-29T16:28:59.561Z,83.64
2022-10-29T16:37:22.439Z,83.76
2022-10-29T16:45:47.158Z,83.83
2022-10-29T16:54:10.419Z,83.69
2022-10-29T17:02:33.317Z,84.09
2022-10-29T17:10:58.786Z,83.94
2022-10-29T17:19:21.882Z,84.05
2022-10-29T17:27:44.687Z,84.56
2022-10-29T17:36:11.760Z,84.49
2022-10-29T17:44:36.290Z,84.82
2022-10-29T17:52:59.119Z,84.75
2022-10-29T18:01:22.062Z,85.83
2022-10-29T18:09:44.862Z,86.76
2022-10-29T18:18:07.707Z,87.00
2022-10-29T18:26:37.092Z,88.24
2022-10-29T18:35:00.009Z,89.09
2022-10-29T18:43:24.302Z,89.80
2022-10-29T18:51:47.290Z,89.96
2022-10-29T19:00:10.803Z,91.83
2022-10-29T19:08:41.950Z,92.16
2022-10-29T19:17:04.932Z,91.41
2022-10-29T19:25:28.254Z,90.82
2022-10-29T19:33:53.048Z,92.33
2022-10-29T19:42:16.600Z,92.27
2022-10-29T19:50:39.407Z,92.85
2022-10-29T19:59:04.248Z,91.93
2022-10-29T20:07:27.062Z,91.62
2022-10-29T20:15:50.735Z,91.89
2022-10-29T20:24:13.581Z,93.11
2022-10-29T20:32:36.447Z,93.84
2022-10-29T20:40:59.260Z,93.41
2022-10-29T20:49:21.988Z,93.30
2022-10-29T20:57:44.782Z,94.47
2022-10-29T21:06:15.530Z,94.09
2022-10-29T21:14:39.568Z,94.69
2022-10-29T21:23:02.310Z,93.95
2022-10-29T21:31:25.381Z,93.13
2022-10-29T21:39:48.265Z,92.79
2022-10-29T21:48:12.109Z,92.92
2022-10-29T21:56:34.925Z,93.69
2022-10-29T22:04:57.663Z,94.27
2022-10-29T22:13:20.452Z,94.97
2022-10-29T22:21:43.209Z,94.83
2022-10-29T22:30:06.383Z,95.70
2022-10-29T22:38:29.136Z,95.55
2022-10-29T22:46:51.915Z,97.37
2022-10-29T22:55:15.893Z,98.89
2022-10-29T23:03:40.222Z,99.85
2022-10-29T23:12:03.049Z,99.89
2022-10-29T23:20:25.810Z,99.85
2022-10-29T23:28:49.259Z,98.74
2022-10-29T23:37:12.138Z,97.93
2022-10-29T23:45:34.920Z,99.14
2022-10-29T23:53:57.911Z,98.58
